sensor_id;sensor_type;location;lat;lon;timestamp;P1;durP1;ratioP1;P2;durP2;ratioP2
41719;SDS011;27405;53.316;-6.294;2023-05-10T00:00:12;14.93;;;2.47;;
41719;SDS011;27405;53.316;-6.294;2023-05-10T00:02:38;14.60;;;2.50;;
41719;SDS011;27405;53.316;-6.294;2023-05-10T00:05:05;18.13;;;2.72;;
41719;SDS011;27405;53.316;-6.294;2023-05-10T00:07:31;10.07;;;2.33;;
41719;SDS011;27405;53.316;-6.294;2023-05-10T00:09:57;16.65;;;3.20;;
41719;SDS011;27405;53.316;-6.294;2023-05-10T00:12:23;15.48;;;3.00;;
41719;SDS011;27405;53.316;-6.294;2023-05-10T00:14:49;11.75;;;2.50;;
41719;SDS011;27405;53.316;-6.294;2023-05-10T00:17:14;11.55;;;2.45;;
41719;SDS011;27405;53.316;-6.294;2023-05-10T00:19:40;14.43;;;2.50;;
41719;SDS011;27405;53.316;-6.294;2023-05-10T00:22:06;11.95;;;2.13;;
41719;SDS011;27405;53.316;-6.294;2023-05-10T00:24:31;13.93;;;2.53;;
41719;SDS011;27405;53.316;-6.294;2023-05-10T00:26:57;14.10;;;2.92;;
41719;SDS011;27405;53.316;-6.294;2023-05-10T00:29:23;13.43;;;2.30;;
41719;SDS011;27405;53.316;-6.294;2023-05-10T00:31:49;15.18;;;2.65;;
41719;SDS011;27405;53.316;-6.294;2023-05-10T00:34:14;12.30;;;2.40;;
41719;SDS011;27405;53.316;-6.294;2023-05-10T00:36:40;13.30;;;2.65;;
41719;SDS011;27405;53.316;-6.294;2023-05-10T00:39:06;16.67;;;2.95;;
41719;SDS011;27405;53.316;-6.294;2023-05-10T00:41:32;14.20;;;2.65;;
41719;SDS011;27405;53.316;-6.294;2023-05-10T00:43:58;12.23;;;2.80;;
41719;SDS011;27405;53.316;-6.294;2023-05-10T00:46:24;12.38;;;2.20;;
41719;SDS011;27405;53.316;-6.294;2023-05-10T00:48:50;13.68;;;2.72;;
41719;SDS011;27405;53.316;-6.294;2023-05-10T00:51:16;13.10;;;2.72;;
41719;SDS011;27405;53.316;-6.294;2023-05-10T00:53:43;10.98;;;2.60;;
41719;SDS011;27405;53.316;-6.294;2023-05-10T00:56:10;13.10;;;3.15;;
41719;SDS011;27405;53.316;-6.294;2023-05-10T00:58:37;12.60;;;3.28;;
41719;SDS011;27405;53.316;-6.294;2023-05-10T01:01:04;12.27;;;2.88;;
41719;SDS011;27405;53.316;-6.294;2023-05-10T01:03:31;12.73;;;2.95;;
41719;SDS011;27405;53.316;-6.294;2023-05-10T01:05:57;12.93;;;2.17;;
41719;SDS011;27405;53.316;-6.294;2023-05-10T01:08:23;12.43;;;2.78;;
41719;SDS011;27405;53.316;-6.294;2023-05-10T01:10:50;15.73;;;2.92;;
41719;SDS011;27405;53.316;-6.294;2023-05-10T01:13:18;10.15;;;2.38;;
41719;SDS011;27405;53.316;-6.294;2023-05-10T01:16:09;9.15;;;2.17;;
41719;SDS011;27405;53.316;-6.294;2023-05-10T01:18:35;9.30;;;2.33;;
41719;SDS011;27405;53.316;-6.294;2023-05-10T01:27:07;9.88;;;1.95;;
41719;SDS011;27405;53.316;-6.294;2023-05-10T01:35:07;8.25;;;1.65;;
41719;SDS011;27405;53.316;-6.294;2023-05-10T01:37:42;8.02;;;1.63;;
41719;SDS011;27405;53.316;-6.294;2023-05-10T01:42:44;13.68;;;2.20;;
41719;SDS011;27405;53.316;-6.294;2023-05-10T01:45:29;8.40;;;1.50;;
41719;SDS011;27405;53.316;-6.294;2023-05-10T01:48:06;5.07;;;1.77;;
41719;SDS011;27405;53.316;-6.294;2023-05-10T01:50:35;8.55;;;1.70;;
41719;SDS011;27405;53.316;-6.294;2023-05-10T01:53:04;5.97;;;1.85;;
41719;SDS011;27405;53.316;-6.294;2023-05-10T01:55:34;8.05;;;1.85;;
41719;SDS011;27405;53.316;-6.294;2023-05-10T01:58:10;10.90;;;2.20;;
41719;SDS011;27405;53.316;-6.294;2023-05-10T02:00:42;10.45;;;1.90;;
41719;SDS011;27405;53.316;-6.294;2023-05-10T02:03:10;12.90;;;2.42;;
41719;SDS011;27405;53.316;-6.294;2023-05-10T02:05:37;10.15;;;2.00;;
41719;SDS011;27405;53.316;-6.294;2023-05-10T02:08:07;8.73;;;2.20;;
41719;SDS011;27405;53.316;-6.294;2023-05-10T02:10:34;10.52;;;1.92;;
41719;SDS011;27405;53.316;-6.294;2023-05-10T02:13:01;11.27;;;2.03;;
41719;SDS011;27405;53.316;-6.294;2023-05-10T02:15:27;15.75;;;2.47;;
41719;SDS011;27405;53.316;-6.294;2023-05-10T02:17:55;12.90;;;2.42;;
41719;SDS011;27405;53.316;-6.294;2023-05-10T02:20:23;12.00;;;2.35;;
41719;SDS011;27405;53.316;-6.294;2023-05-10T02:22:50;12.02;;;2.40;;
41719;SDS011;27405;53.316;-6.294;2023-05-10T02:25:17;11.27;;;2.55;;
41719;SDS011;27405;53.316;-6.294;2023-05-10T02:27:45;13.63;;;2.50;;
41719;SDS011;27405;53.316;-6.294;2023-05-10T02:30:12;9.13;;;2.25;;
41719;SDS011;27405;53.316;-6.294;2023-05-10T02:32:39;10.35;;;1.90;;
41719;SDS011;27405;53.316;-6.294;2023-05-10T02:35:06;15.75;;;2.10;;
41719;SDS011;27405;53.316;-6.294;2023-05-10T02:37:34;9.65;;;2.40;;
41719;SDS011;27405;53.316;-6.294;2023-05-10T02:40:01;10.80;;;2.03;;
41719;SDS011;27405;53.316;-6.294;2023-05-10T02:42:29;11.32;;;2.13;;
41719;SDS011;27405;53.316;-6.294;2023-05-10T02:44:59;10.10;;;1.77;;
41719;SDS011;27405;53.316;-6.294;2023-05-10T02:47:26;12.75;;;1.98;;
41719;SDS011;27405;53.316;-6.294;2023-05-10T02:49:52;8.43;;;2.00;;
41719;SDS011;27405;53.316;-6.294;2023-05-10T02:52:23;10.95;;;2.15;;
41719;SDS011;27405;53.316;-6.294;2023-05-10T02:54:52;10.35;;;2.30;;
41719;SDS011;27405;53.316;-6.294;2023-05-10T02:57:45;11.13;;;2.20;;
41719;SDS011;27405;53.316;-6.294;2023-05-10T03:00:11;10.07;;;1.80;;
41719;SDS011;27405;53.316;-6.294;2023-05-10T03:02:37;12.32;;;2.00;;
41719;SDS011;27405;53.316;-6.294;2023-05-10T03:05:03;13.40;;;2.58;;
41719;SDS011;27405;53.316;-6.294;2023-05-10T03:07:29;11.20;;;2.50;;
41719;SDS011;27405;53.316;-6.294;2023-05-10T03:09:54;13.18;;;2.60;;
41719;SDS011;27405;53.316;-6.294;2023-05-10T03:12:27;12.63;;;2.03;;
41719;SDS011;27405;53.316;-6.294;2023-05-10T03:17:48;13.15;;;2.83;;
41719;SDS011;27405;53.316;-6.294;2023-05-10T03:20:22;15.50;;;2.13;;
41719;SDS011;27405;53.316;-6.294;2023-05-10T03:22:52;16.50;;;2.90;;
41719;SDS011;27405;53.316;-6.294;2023-05-10T03:25:21;11.60;;;2.40;;
41719;SDS011;27405;53.316;-6.294;2023-05-10T03:27:47;8.35;;;1.80;;
41719;SDS011;27405;53.316;-6.294;2023-05-10T03:30:14;12.25;;;2.15;;
41719;SDS011;27405;53.316;-6.294;2023-05-10T03:32:40;12.70;;;2.30;;
41719;SDS011;27405;53.316;-6.294;2023-05-10T03:35:07;13.00;;;2.17;;
41719;SDS011;27405;53.316;-6.294;2023-05-10T03:37:37;7.72;;;1.77;;
41719;SDS011;27405;53.316;-6.294;2023-05-10T03:40:03;8.32;;;1.95;;
41719;SDS011;27405;53.316;-6.294;2023-05-10T03:42:29;7.80;;;1.70;;
41719;SDS011;27405;53.316;-6.294;2023-05-10T03:44:55;11.77;;;2.00;;
41719;SDS011;27405;53.316;-6.294;2023-05-10T03:47:21;8.13;;;1.73;;
41719;SDS011;27405;53.316;-6.294;2023-05-10T03:49:47;9.55;;;2.20;;
41719;SDS011;27405;53.316;-6.294;2023-05-10T03:52:12;14.55;;;2.30;;
41719;SDS011;27405;53.316;-6.294;2023-05-10T03:54:38;13.60;;;2.20;;
41719;SDS011;27405;53.316;-6.294;2023-05-10T03:57:04;10.70;;;1.90;;
41719;SDS011;27405;53.316;-6.294;2023-05-10T03:59:29;10.63;;;2.33;;
41719;SDS011;27405;53.316;-6.294;2023-05-10T04:01:55;17.58;;;2.63;;
41719;SDS011;27405;53.316;-6.294;2023-05-10T04:04:21;14.50;;;2.13;;
41719;SDS011;27405;53.316;-6.294;2023-05-10T04:06:48;12.13;;;2.60;;
41719;SDS011;27405;53.316;-6.294;2023-05-10T04:09:14;11.85;;;2.40;;
41719;SDS011;27405;53.316;-6.294;2023-05-10T04:11:40;15.07;;;2.33;;
41719;SDS011;27405;53.316;-6.294;2023-05-10T04:14:05;17.25;;;2.30;;
41719;SDS011;27405;53.316;-6.294;2023-05-10T04:16:31;8.88;;;1.98;;
41719;SDS011;27405;53.316;-6.294;2023-05-10T04:18:57;9.75;;;2.10;;
41719;SDS011;27405;53.316;-6.294;2023-05-10T04:21:22;13.25;;;2.00;;
41719;SDS011;27405;53.316;-6.294;2023-05-10T04:23:48;11.57;;;2.22;;
41719;SDS011;27405;53.316;-6.294;2023-05-10T04:26:14;9.63;;;1.98;;
41719;SDS011;27405;53.316;-6.294;2023-05-10T04:28:39;12.30;;;2.35;;
41719;SDS011;27405;53.316;-6.294;2023-05-10T04:31:06;11.75;;;2.50;;
41719;SDS011;27405;53.316;-6.294;2023-05-10T04:33:33;11.32;;;2.40;;
41719;SDS011;27405;53.316;-6.294;2023-05-10T04:35:59;10.95;;;2.00;;
41719;SDS011;27405;53.316;-6.294;2023-05-10T04:38:25;9.93;;;2.00;;
41719;SDS011;27405;53.316;-6.294;2023-05-10T04:40:52;11.85;;;1.95;;
41719;SDS011;27405;53.316;-6.294;2023-05-10T04:43:18;8.27;;;2.05;;
41719;SDS011;27405;53.316;-6.294;2023-05-10T04:45:45;10.00;;;1.83;;
41719;SDS011;27405;53.316;-6.294;2023-05-10T04:48:10;7.40;;;1.50;;
41719;SDS011;27405;53.316;-6.294;2023-05-10T04:50:36;9.85;;;1.73;;
41719;SDS011;27405;53.316;-6.294;2023-05-10T04:53:02;11.85;;;1.75;;
41719;SDS011;27405;53.316;-6.294;2023-05-10T04:55:27;10.98;;;1.80;;
41719;SDS011;27405;53.316;-6.294;2023-05-10T04:57:53;9.02;;;1.60;;
41719;SDS011;27405;53.316;-6.294;2023-05-10T05:00:21;13.05;;;2.80;;
41719;SDS011;27405;53.316;-6.294;2023-05-10T05:02:48;12.75;;;1.95;;
41719;SDS011;27405;53.316;-6.294;2023-05-10T05:05:13;13.73;;;1.90;;
41719;SDS011;27405;53.316;-6.294;2023-05-10T05:07:39;11.70;;;2.25;;
41719;SDS011;27405;53.316;-6.294;2023-05-10T05:10:08;12.00;;;1.95;;
41719;SDS011;27405;53.316;-6.294;2023-05-10T05:12:34;9.32;;;1.75;;
41719;SDS011;27405;53.316;-6.294;2023-05-10T05:15:00;14.77;;;1.88;;
41719;SDS011;27405;53.316;-6.294;2023-05-10T05:17:26;9.38;;;1.80;;
41719;SDS011;27405;53.316;-6.294;2023-05-10T05:19:52;11.57;;;2.00;;
41719;SDS011;27405;53.316;-6.294;2023-05-10T05:22:18;11.50;;;1.58;;
41719;SDS011;27405;53.316;-6.294;2023-05-10T05:24:52;6.03;;;1.80;;
41719;SDS011;27405;53.316;-6.294;2023-05-10T05:27:22;15.50;;;2.30;;
41719;SDS011;27405;53.316;-6.294;2023-05-10T05:29:52;4.75;;;1.25;;
41719;SDS011;27405;53.316;-6.294;2023-05-10T05:32:18;10.85;;;1.80;;
41719;SDS011;27405;53.316;-6.294;2023-05-10T05:34:44;12.18;;;2.33;;
41719;SDS011;27405;53.316;-6.294;2023-05-10T05:37:14;9.60;;;1.80;;
41719;SDS011;27405;53.316;-6.294;2023-05-10T05:39:41;12.07;;;2.05;;
41719;SDS011;27405;53.316;-6.294;2023-05-10T05:42:07;8.25;;;1.80;;
41719;SDS011;27405;53.316;-6.294;2023-05-10T05:44:36;8.52;;;1.73;;
41719;SDS011;27405;53.316;-6.294;2023-05-10T05:47:02;8.13;;;1.60;;
41719;SDS011;27405;53.316;-6.294;2023-05-10T05:49:28;9.20;;;1.73;;
41719;SDS011;27405;53.316;-6.294;2023-05-10T05:51:54;6.70;;;1.50;;
41719;SDS011;27405;53.316;-6.294;2023-05-10T05:56:48;9.98;;;2.22;;
41719;SDS011;27405;53.316;-6.294;2023-05-10T05:59:14;8.90;;;1.48;;
41719;SDS011;27405;53.316;-6.294;2023-05-10T06:01:40;8.38;;;1.80;;
41719;SDS011;27405;53.316;-6.294;2023-05-10T06:04:05;6.65;;;1.38;;
41719;SDS011;27405;53.316;-6.294;2023-05-10T06:06:31;9.07;;;1.60;;
41719;SDS011;27405;53.316;-6.294;2023-05-10T06:08:57;3.80;;;1.20;;
41719;SDS011;27405;53.316;-6.294;2023-05-10T06:11:23;7.13;;;1.30;;
41719;SDS011;27405;53.316;-6.294;2023-05-10T06:13:48;7.68;;;1.60;;
41719;SDS011;27405;53.316;-6.294;2023-05-10T06:16:14;7.32;;;1.58;;
41719;SDS011;27405;53.316;-6.294;2023-05-10T06:18:40;7.38;;;1.52;;
41719;SDS011;27405;53.316;-6.294;2023-05-10T06:21:06;9.82;;;1.60;;
41719;SDS011;27405;53.316;-6.294;2023-05-10T06:23:31;7.70;;;1.67;;
41719;SDS011;27405;53.316;-6.294;2023-05-10T06:25:57;7.60;;;1.50;;
41719;SDS011;27405;53.316;-6.294;2023-05-10T06:28:23;6.63;;;1.30;;
41719;SDS011;27405;53.316;-6.294;2023-05-10T06:30:48;6.50;;;1.40;;
41719;SDS011;27405;53.316;-6.294;2023-05-10T06:33:14;8.85;;;1.42;;
41719;SDS011;27405;53.316;-6.294;2023-05-10T06:35:41;7.43;;;1.48;;
41719;SDS011;27405;53.316;-6.294;2023-05-10T06:38:06;6.47;;;1.60;;
41719;SDS011;27405;53.316;-6.294;2023-05-10T06:40:32;7.82;;;1.48;;
41719;SDS011;27405;53.316;-6.294;2023-05-10T06:42:58;9.20;;;1.83;;
41719;SDS011;27405;53.316;-6.294;2023-05-10T06:45:23;9.35;;;1.55;;
41719;SDS011;27405;53.316;-6.294;2023-05-10T06:47:49;9.15;;;1.58;;
41719;SDS011;27405;53.316;-6.294;2023-05-10T06:50:15;8.73;;;1.70;;
41719;SDS011;27405;53.316;-6.294;2023-05-10T06:52:40;5.40;;;1.38;;
41719;SDS011;27405;53.316;-6.294;2023-05-10T06:55:06;7.57;;;1.50;;
41719;SDS011;27405;53.316;-6.294;2023-05-10T06:57:33;11.38;;;1.73;;
41719;SDS011;27405;53.316;-6.294;2023-05-10T06:59:59;6.40;;;1.33;;
41719;SDS011;27405;53.316;-6.294;2023-05-10T07:02:25;6.75;;;1.80;;
41719;SDS011;27405;53.316;-6.294;2023-05-10T07:04:51;8.07;;;1.45;;
41719;SDS011;27405;53.316;-6.294;2023-05-10T07:07:17;9.57;;;1.90;;
41719;SDS011;27405;53.316;-6.294;2023-05-10T07:09:43;7.22;;;1.40;;
41719;SDS011;27405;53.316;-6.294;2023-05-10T07:12:09;5.55;;;1.45;;
41719;SDS011;27405;53.316;-6.294;2023-05-10T07:14:34;10.15;;;1.70;;
41719;SDS011;27405;53.316;-6.294;2023-05-10T07:17:00;7.72;;;1.55;;
41719;SDS011;27405;53.316;-6.294;2023-05-10T07:19:26;6.65;;;1.60;;
41719;SDS011;27405;53.316;-6.294;2023-05-10T07:21:52;6.53;;;1.17;;
41719;SDS011;27405;53.316;-6.294;2023-05-10T07:24:17;5.75;;;1.13;;
41719;SDS011;27405;53.316;-6.294;2023-05-10T07:26:43;3.50;;;1.10;;
41719;SDS011;27405;53.316;-6.294;2023-05-10T07:29:09;6.05;;;1.40;;
41719;SDS011;27405;53.316;-6.294;2023-05-10T07:31:35;3.80;;;1.10;;
41719;SDS011;27405;53.316;-6.294;2023-05-10T07:34:00;6.30;;;1.00;;
41719;SDS011;27405;53.316;-6.294;2023-05-10T07:36:26;5.35;;;1.13;;
41719;SDS011;27405;53.316;-6.294;2023-05-10T07:38:52;5.25;;;1.38;;
41719;SDS011;27405;53.316;-6.294;2023-05-10T07:41:18;3.22;;;1.17;;
41719;SDS011;27405;53.316;-6.294;2023-05-10T07:43:43;3.20;;;0.70;;
41719;SDS011;27405;53.316;-6.294;2023-05-10T07:46:09;8.07;;;0.90;;
41719;SDS011;27405;53.316;-6.294;2023-05-10T07:48:36;5.68;;;0.90;;
41719;SDS011;27405;53.316;-6.294;2023-05-10T07:51:02;6.03;;;1.13;;
41719;SDS011;27405;53.316;-6.294;2023-05-10T07:53:27;6.18;;;1.08;;
41719;SDS011;27405;53.316;-6.294;2023-05-10T07:55:54;7.78;;;1.55;;
41719;SDS011;27405;53.316;-6.294;2023-05-10T07:58:23;6.07;;;1.27;;
41719;SDS011;27405;53.316;-6.294;2023-05-10T08:00:52;6.57;;;1.30;;
41719;SDS011;27405;53.316;-6.294;2023-05-10T08:03:17;11.45;;;1.38;;
41719;SDS011;27405;53.316;-6.294;2023-05-10T08:05:43;5.72;;;1.38;;
41719;SDS011;27405;53.316;-6.294;2023-05-10T08:08:08;3.47;;;0.93;;
41719;SDS011;27405;53.316;-6.294;2023-05-10T08:10:34;7.18;;;1.70;;
41719;SDS011;27405;53.316;-6.294;2023-05-10T08:13:00;5.85;;;0.90;;
41719;SDS011;27405;53.316;-6.294;2023-05-10T08:15:25;5.30;;;1.13;;
41719;SDS011;27405;53.316;-6.294;2023-05-10T08:17:51;6.72;;;1.35;;
41719;SDS011;27405;53.316;-6.294;2023-05-10T08:20:17;3.33;;;0.98;;
41719;SDS011;27405;53.316;-6.294;2023-05-10T08:22:44;7.35;;;1.10;;
41719;SDS011;27405;53.316;-6.294;2023-05-10T08:25:11;4.47;;;1.08;;
41719;SDS011;27405;53.316;-6.294;2023-05-10T08:27:37;3.20;;;1.00;;
41719;SDS011;27405;53.316;-6.294;2023-05-10T08:30:02;8.13;;;1.27;;
41719;SDS011;27405;53.316;-6.294;2023-05-10T08:32:28;2.55;;;0.95;;
41719;SDS011;27405;53.316;-6.294;2023-05-10T08:34:54;2.33;;;0.80;;
41719;SDS011;27405;53.316;-6.294;2023-05-10T08:37:21;6.95;;;1.30;;
41719;SDS011;27405;53.316;-6.294;2023-05-10T08:39:48;4.18;;;1.00;;
41719;SDS011;27405;53.316;-6.294;2023-05-10T08:42:13;4.25;;;0.88;;
41719;SDS011;27405;53.316;-6.294;2023-05-10T08:44:44;2.92;;;0.95;;
41719;SDS011;27405;53.316;-6.294;2023-05-10T08:47:13;8.18;;;1.02;;
41719;SDS011;27405;53.316;-6.294;2023-05-10T08:49:41;3.33;;;1.15;;
41719;SDS011;27405;53.316;-6.294;2023-05-10T08:52:08;3.83;;;0.90;;
41719;SDS011;27405;53.316;-6.294;2023-05-10T08:54:37;6.18;;;1.10;;
41719;SDS011;27405;53.316;-6.294;2023-05-10T08:57:03;3.38;;;1.15;;
41719;SDS011;27405;53.316;-6.294;2023-05-10T08:59:29;4.88;;;1.13;;
41719;SDS011;27405;53.316;-6.294;2023-05-10T09:01:55;2.80;;;1.00;;
41719;SDS011;27405;53.316;-6.294;2023-05-10T09:04:23;5.70;;;1.02;;
41719;SDS011;27405;53.316;-6.294;2023-05-10T09:06:50;4.45;;;1.00;;
41719;SDS011;27405;53.316;-6.294;2023-05-10T09:09:16;4.55;;;1.00;;
41719;SDS011;27405;53.316;-6.294;2023-05-10T09:11:43;3.38;;;0.90;;
41719;SDS011;27405;53.316;-6.294;2023-05-10T09:14:09;4.70;;;1.00;;
41719;SDS011;27405;53.316;-6.294;2023-05-10T09:16:37;6.57;;;0.90;;
41719;SDS011;27405;53.316;-6.294;2023-05-10T09:19:03;4.90;;;1.23;;
41719;SDS011;27405;53.316;-6.294;2023-05-10T09:21:29;4.28;;;1.05;;
41719;SDS011;27405;53.316;-6.294;2023-05-10T09:23:56;6.10;;;0.95;;
41719;SDS011;27405;53.316;-6.294;2023-05-10T09:26:22;3.60;;;0.77;;
41719;SDS011;27405;53.316;-6.294;2023-05-10T09:28:56;2.83;;;0.70;;
41719;SDS011;27405;53.316;-6.294;2023-05-10T09:31:22;6.75;;;0.90;;
41719;SDS011;27405;53.316;-6.294;2023-05-10T09:33:50;2.58;;;0.90;;
41719;SDS011;27405;53.316;-6.294;2023-05-10T09:36:16;2.25;;;0.70;;
41719;SDS011;27405;53.316;-6.294;2023-05-10T09:38:49;5.93;;;1.02;;
41719;SDS011;27405;53.316;-6.294;2023-05-10T09:41:17;4.80;;;0.70;;
41719;SDS011;27405;53.316;-6.294;2023-05-10T09:43:45;4.82;;;1.10;;
41719;SDS011;27405;53.316;-6.294;2023-05-10T09:46:10;4.90;;;1.10;;
41719;SDS011;27405;53.316;-6.294;2023-05-10T09:48:41;4.95;;;1.23;;
41719;SDS011;27405;53.316;-6.294;2023-05-10T09:51:08;4.30;;;1.17;;
41719;SDS011;27405;53.316;-6.294;2023-05-10T09:53:34;4.15;;;0.88;;
41719;SDS011;27405;53.316;-6.294;2023-05-10T09:56:00;2.45;;;0.68;;
41719;SDS011;27405;53.316;-6.294;2023-05-10T09:58:25;5.07;;;0.93;;
41719;SDS011;27405;53.316;-6.294;2023-05-10T10:00:51;2.83;;;0.77;;
41719;SDS011;27405;53.316;-6.294;2023-05-10T10:03:19;4.05;;;1.02;;
41719;SDS011;27405;53.316;-6.294;2023-05-10T10:05:47;3.20;;;0.80;;
41719;SDS011;27405;53.316;-6.294;2023-05-10T10:08:13;2.13;;;0.95;;
41719;SDS011;27405;53.316;-6.294;2023-05-10T10:10:40;3.88;;;1.10;;
41719;SDS011;27405;53.316;-6.294;2023-05-10T10:13:06;2.25;;;0.75;;
41719;SDS011;27405;53.316;-6.294;2023-05-10T10:15:33;1.63;;;0.77;;
41719;SDS011;27405;53.316;-6.294;2023-05-10T10:17:59;3.70;;;1.10;;
41719;SDS011;27405;53.316;-6.294;2023-05-10T10:20:26;1.88;;;0.70;;
41719;SDS011;27405;53.316;-6.294;2023-05-10T10:22:53;3.85;;;0.65;;
41719;SDS011;27405;53.316;-6.294;2023-05-10T10:25:19;3.45;;;0.80;;
41719;SDS011;27405;53.316;-6.294;2023-05-10T10:27:54;34.20;;;4.90;;
41719;SDS011;27405;53.316;-6.294;2023-05-10T10:35:31;1.40;;;0.70;;
41719;SDS011;27405;53.316;-6.294;2023-05-10T10:37:57;4.65;;;0.88;;
41719;SDS011;27405;53.316;-6.294;2023-05-10T10:42:51;1.35;;;0.60;;
41719;SDS011;27405;53.316;-6.294;2023-05-10T10:45:18;2.72;;;0.70;;
41719;SDS011;27405;53.316;-6.294;2023-05-10T10:47:44;3.03;;;0.90;;
41719;SDS011;27405;53.316;-6.294;2023-05-10T10:50:10;2.78;;;0.50;;
41719;SDS011;27405;53.316;-6.294;2023-05-10T10:52:41;3.17;;;0.80;;
41719;SDS011;27405;53.316;-6.294;2023-05-10T10:55:15;2.55;;;0.77;;
41719;SDS011;27405;53.316;-6.294;2023-05-10T11:00:18;1.80;;;0.40;;
41719;SDS011;27405;53.316;-6.294;2023-05-10T11:02:48;4.78;;;0.57;;
41719;SDS011;27405;53.316;-6.294;2023-05-10T11:08:27;3.65;;;0.52;;
41719;SDS011;27405;53.316;-6.294;2023-05-10T11:15:55;2.38;;;0.70;;
41719;SDS011;27405;53.316;-6.294;2023-05-10T11:18:29;4.75;;;0.82;;
41719;SDS011;27405;53.316;-6.294;2023-05-10T11:20:56;3.95;;;0.80;;
41719;SDS011;27405;53.316;-6.294;2023-05-10T11:23:23;4.32;;;0.70;;
41719;SDS011;27405;53.316;-6.294;2023-05-10T11:25:54;3.45;;;0.73;;
41719;SDS011;27405;53.316;-6.294;2023-05-10T11:28:20;5.15;;;0.73;;
41719;SDS011;27405;53.316;-6.294;2023-05-10T11:30:46;4.97;;;0.73;;
41719;SDS011;27405;53.316;-6.294;2023-05-10T11:33:16;6.00;;;0.98;;
41719;SDS011;27405;53.316;-6.294;2023-05-10T11:35:42;2.97;;;0.80;;
41719;SDS011;27405;53.316;-6.294;2023-05-10T11:38:08;2.90;;;0.70;;
41719;SDS011;27405;53.316;-6.294;2023-05-10T11:40:35;2.53;;;0.70;;
41719;SDS011;27405;53.316;-6.294;2023-05-10T11:43:02;2.92;;;0.90;;
41719;SDS011;27405;53.316;-6.294;2023-05-10T11:45:28;8.02;;;1.00;;
41719;SDS011;27405;53.316;-6.294;2023-05-10T11:47:56;2.40;;;0.90;;
41719;SDS011;27405;53.316;-6.294;2023-05-10T11:50:22;5.25;;;0.90;;
41719;SDS011;27405;53.316;-6.294;2023-05-10T11:52:52;3.00;;;1.08;;
41719;SDS011;27405;53.316;-6.294;2023-05-10T11:55:18;1.95;;;0.90;;
41719;SDS011;27405;53.316;-6.294;2023-05-10T11:57:44;1.05;;;0.57;;
41719;SDS011;27405;53.316;-6.294;2023-05-10T12:00:11;5.85;;;1.00;;
41719;SDS011;27405;53.316;-6.294;2023-05-10T12:02:37;0.93;;;0.70;;
41719;SDS011;27405;53.316;-6.294;2023-05-10T12:05:04;3.85;;;1.10;;
41719;SDS011;27405;53.316;-6.294;2023-05-10T12:07:30;3.63;;;0.90;;
41719;SDS011;27405;53.316;-6.294;2023-05-10T12:10:06;3.13;;;0.95;;
41719;SDS011;27405;53.316;-6.294;2023-05-10T12:12:39;2.95;;;0.77;;
41719;SDS011;27405;53.316;-6.294;2023-05-10T12:20:27;2.70;;;1.20;;
41719;SDS011;27405;53.316;-6.294;2023-05-10T12:22:56;5.20;;;0.90;;
41719;SDS011;27405;53.316;-6.294;2023-05-10T12:25:24;2.47;;;0.93;;
41719;SDS011;27405;53.316;-6.294;2023-05-10T12:27:56;5.47;;;1.08;;
41719;SDS011;27405;53.316;-6.294;2023-05-10T12:30:23;2.10;;;0.55;;
41719;SDS011;27405;53.316;-6.294;2023-05-10T12:32:49;5.13;;;1.00;;
41719;SDS011;27405;53.316;-6.294;2023-05-10T12:35:16;5.82;;;1.80;;
41719;SDS011;27405;53.316;-6.294;2023-05-10T12:37:45;2.08;;;1.30;;
41719;SDS011;27405;53.316;-6.294;2023-05-10T12:40:11;4.30;;;1.08;;
41719;SDS011;27405;53.316;-6.294;2023-05-10T12:42:38;3.85;;;1.10;;
41719;SDS011;27405;53.316;-6.294;2023-05-10T12:45:05;1.73;;;0.90;;
41719;SDS011;27405;53.316;-6.294;2023-05-10T12:47:31;6.45;;;1.05;;
41719;SDS011;27405;53.316;-6.294;2023-05-10T12:49:57;6.00;;;1.15;;
41719;SDS011;27405;53.316;-6.294;2023-05-10T12:52:25;3.75;;;0.90;;
41719;SDS011;27405;53.316;-6.294;2023-05-10T12:54:51;1.65;;;0.63;;
41719;SDS011;27405;53.316;-6.294;2023-05-10T12:57:18;8.23;;;1.00;;
41719;SDS011;27405;53.316;-6.294;2023-05-10T12:59:45;3.28;;;0.70;;
41719;SDS011;27405;53.316;-6.294;2023-05-10T13:02:10;1.92;;;0.73;;
41719;SDS011;27405;53.316;-6.294;2023-05-10T13:04:36;1.63;;;0.98;;
41719;SDS011;27405;53.316;-6.294;2023-05-10T13:07:05;3.75;;;0.70;;
41719;SDS011;27405;53.316;-6.294;2023-05-10T13:09:34;2.50;;;0.60;;
41719;SDS011;27405;53.316;-6.294;2023-05-10T13:12:00;4.20;;;0.70;;
41719;SDS011;27405;53.316;-6.294;2023-05-10T13:14:27;3.38;;;0.73;;
41719;SDS011;27405;53.316;-6.294;2023-05-10T13:16:52;4.88;;;0.90;;
41719;SDS011;27405;53.316;-6.294;2023-05-10T13:19:19;4.72;;;0.85;;
41719;SDS011;27405;53.316;-6.294;2023-05-10T13:21:45;3.13;;;0.70;;
41719;SDS011;27405;53.316;-6.294;2023-05-10T13:24:11;3.35;;;1.00;;
41719;SDS011;27405;53.316;-6.294;2023-05-10T13:26:43;4.07;;;0.80;;
41719;SDS011;27405;53.316;-6.294;2023-05-10T13:29:08;2.90;;;0.80;;
41719;SDS011;27405;53.316;-6.294;2023-05-10T13:31:35;6.95;;;0.82;;
41719;SDS011;27405;53.316;-6.294;2023-05-10T13:34:01;4.13;;;1.10;;
41719;SDS011;27405;53.316;-6.294;2023-05-10T13:36:27;4.43;;;1.10;;
41719;SDS011;27405;53.316;-6.294;2023-05-10T13:38:53;4.32;;;1.10;;
41719;SDS011;27405;53.316;-6.294;2023-05-10T13:41:19;7.65;;;1.27;;
41719;SDS011;27405;53.316;-6.294;2023-05-10T13:43:44;6.03;;;1.10;;
41719;SDS011;27405;53.316;-6.294;2023-05-10T13:46:10;7.55;;;0.80;;
41719;SDS011;27405;53.316;-6.294;2023-05-10T13:48:36;4.03;;;1.33;;
41719;SDS011;27405;53.316;-6.294;2023-05-10T13:51:04;2.25;;;0.70;;
41719;SDS011;27405;53.316;-6.294;2023-05-10T13:53:30;5.55;;;0.80;;
41719;SDS011;27405;53.316;-6.294;2023-05-10T13:55:56;3.83;;;0.73;;
41719;SDS011;27405;53.316;-6.294;2023-05-10T13:58:22;3.13;;;0.77;;
41719;SDS011;27405;53.316;-6.294;2023-05-10T14:00:48;2.67;;;0.75;;
41719;SDS011;27405;53.316;-6.294;2023-05-10T14:03:14;2.97;;;0.70;;
41719;SDS011;27405;53.316;-6.294;2023-05-10T14:05:39;4.40;;;0.90;;
41719;SDS011;27405;53.316;-6.294;2023-05-10T14:08:05;7.10;;;1.33;;
41719;SDS011;27405;53.316;-6.294;2023-05-10T14:10:31;3.92;;;1.38;;
41719;SDS011;27405;53.316;-6.294;2023-05-10T14:12:56;4.55;;;1.30;;
41719;SDS011;27405;53.316;-6.294;2023-05-10T14:15:22;3.13;;;0.73;;
41719;SDS011;27405;53.316;-6.294;2023-05-10T14:17:48;4.43;;;1.00;;
41719;SDS011;27405;53.316;-6.294;2023-05-10T14:20:14;3.33;;;0.85;;
41719;SDS011;27405;53.316;-6.294;2023-05-10T14:22:40;2.63;;;0.70;;
41719;SDS011;27405;53.316;-6.294;2023-05-10T14:25:05;6.13;;;1.15;;
41719;SDS011;27405;53.316;-6.294;2023-05-10T14:27:31;3.00;;;1.02;;
41719;SDS011;27405;53.316;-6.294;2023-05-10T14:29:57;5.30;;;1.20;;
41719;SDS011;27405;53.316;-6.294;2023-05-10T14:32:23;4.30;;;0.82;;
41719;SDS011;27405;53.316;-6.294;2023-05-10T14:34:48;2.88;;;1.00;;
41719;SDS011;27405;53.316;-6.294;2023-05-10T14:37:14;6.32;;;0.60;;
41719;SDS011;27405;53.316;-6.294;2023-05-10T14:39:41;3.63;;;0.85;;
41719;SDS011;27405;53.316;-6.294;2023-05-10T14:42:07;1.63;;;0.68;;
41719;SDS011;27405;53.316;-6.294;2023-05-10T14:44:33;4.32;;;0.80;;
41719;SDS011;27405;53.316;-6.294;2023-05-10T14:46:59;3.95;;;0.77;;
41719;SDS011;27405;53.316;-6.294;2023-05-10T14:49:25;3.90;;;0.73;;
41719;SDS011;27405;53.316;-6.294;2023-05-10T14:51:51;6.20;;;0.80;;
41719;SDS011;27405;53.316;-6.294;2023-05-10T14:54:17;2.95;;;0.80;;
41719;SDS011;27405;53.316;-6.294;2023-05-10T14:56:42;3.78;;;0.77;;
41719;SDS011;27405;53.316;-6.294;2023-05-10T14:59:08;2.20;;;1.00;;
41719;SDS011;27405;53.316;-6.294;2023-05-10T15:01:34;3.25;;;0.85;;
41719;SDS011;27405;53.316;-6.294;2023-05-10T15:04:02;4.30;;;0.73;;
41719;SDS011;27405;53.316;-6.294;2023-05-10T15:06:32;6.32;;;1.05;;
41719;SDS011;27405;53.316;-6.294;2023-05-10T15:08:59;1.60;;;0.52;;
41719;SDS011;27405;53.316;-6.294;2023-05-10T15:11:25;3.30;;;0.80;;